createdAt,value
2018-08-03T00:03:54.260Z,99.90
2018-08-03T00:08:50.609Z,99.90
2018-08-03T00:11:18.756Z,99.90
2018-08-03T00:13:46.901Z,99.90
2018-08-03T00:16:15.057Z,99.90
2018-08-03T00:18:43.194Z,99.90
2018-08-03T00:21:11.340Z,99.90
2018-08-03T00:23:39.484Z,99.90
2018-08-03T00:26:07.653Z,99.90
2018-08-03T00:28:35.805Z,99.90
2018-08-03T00:31:03.941Z,99.90
2018-08-03T00:33:32.077Z,99.90
2018-08-03T00:36:00.224Z,99.90
2018-08-03T00:38:28.371Z,99.90
2018-08-03T00:40:56.524Z,99.90
2018-08-03T00:43:24.665Z,99.90
2018-08-03T00:48:20.724Z,99.90
2018-08-03T00:50:48.906Z,99.90
2018-08-03T00:53:17.040Z,99.90
2018-08-03T00:55:45.184Z,99.90
2018-08-03T00:58:13.320Z,99.90
2018-08-03T01:00:41.472Z,99.90
2018-08-03T01:05:37.840Z,99.90
2018-08-03T01:08:05.996Z,99.90
2018-08-03T01:10:34.145Z,99.90
2018-08-03T01:13:02.289Z,99.90
2018-08-03T01:15:30.451Z,99.90
2018-08-03T01:17:58.596Z,99.90
2018-08-03T01:22:54.653Z,99.90
2018-08-03T01:25:22.801Z,99.90
2018-08-03T01:27:50.988Z,99.90
2018-08-03T01:32:48.063Z,99.90
2018-08-03T01:37:44.178Z,99.90
2018-08-03T01:40:12.278Z,99.90
2018-08-03T01:45:08.345Z,99.90
2018-08-03T01:47:36.490Z,99.90
2018-08-03T01:52:32.744Z,99.90
2018-08-03T01:57:28.981Z,99.90
2018-08-03T02:02:25.103Z,99.90
2018-08-03T02:04:53.265Z,99.90
2018-08-03T02:07:21.808Z,99.90
2018-08-03T02:09:49.961Z,99.90
2018-08-03T02:14:46.034Z,99.90
2018-08-03T02:17:14.181Z,99.90
2018-08-03T02:22:10.237Z,99.90
2018-08-03T02:24:38.396Z,99.90
2018-08-03T02:29:34.477Z,99.90
2018-08-03T02:32:02.621Z,99.90
2018-08-03T02:34:30.772Z,99.90
2018-08-03T02:36:58.916Z,99.90
2018-08-03T02:39:27.077Z,99.90
2018-08-03T02:41:55.216Z,99.90
2018-08-03T02:46:51.397Z,99.90
2018-08-03T02:49:19.540Z,99.90
2018-08-03T02:51:47.685Z,99.90
2018-08-03T02:54:15.843Z,99.90
2018-08-03T02:56:43.981Z,99.90
2018-08-03T02:59:12.132Z,99.90
2018-08-03T03:04:08.201Z,99.90
2018-08-03T03:06:36.377Z,99.90
2018-08-03T03:09:07.559Z,99.90
2018-08-03T03:11:35.696Z,99.90
2018-08-03T03:14:04.049Z,99.90
2018-08-03T03:19:00.221Z,99.90
2018-08-03T03:21:28.353Z,99.90
2018-08-03T03:26:24.528Z,99.90
2018-08-03T03:28:52.680Z,99.90
2018-08-03T03:33:48.929Z,99.90
2018-08-03T03:38:45.009Z,99.90
2018-08-03T03:41:13.148Z,99.90
2018-08-03T03:46:09.428Z,99.90
2018-08-03T03:48:37.583Z,99.90
2018-08-03T03:51:05.782Z,99.90
2018-08-03T03:53:33.900Z,99.90
2018-08-03T03:56:02.049Z,99.90
2018-08-03T03:58:30.201Z,99.90
2018-08-03T04:00:58.340Z,99.90
2018-08-03T04:05:54.865Z,99.90
2018-08-03T04:08:23.005Z,99.90
2018-08-03T04:10:51.184Z,99.90
2018-08-03T04:13:19.313Z,99.90
2018-08-03T04:15:47.460Z,99.90
2018-08-03T04:18:18.743Z,99.90
2018-08-03T04:23:14.849Z,99.90
2018-08-03T04:25:43.038Z,99.90
2018-08-03T04:28:11.185Z,99.90
2018-08-03T04:30:39.521Z,99.90
2018-08-03T04:35:35.637Z,99.90
2018-08-03T04:38:03.808Z,99.90
2018-08-03T04:40:31.960Z,99.90
2018-08-03T04:43:00.097Z,99.90
2018-08-03T04:45:28.277Z,99.90
2018-08-03T04:47:56.452Z,99.90
2018-08-03T04:50:24.601Z,99.90
2018-08-03T04:57:48.948Z,99.90
2018-08-03T05:00:17.104Z,99.90
2018-08-03T05:02:45.243Z,99.90
2018-08-03T05:05:13.393Z,99.90
2018-08-03T05:07:41.534Z,99.90
2018-08-03T05:10:09.693Z,99.90
2018-08-03T05:15:06.494Z,99.90
2018-08-03T05:17:34.628Z,99.90
2018-08-03T05:22:30.689Z,99.90
2018-08-03T05:24:58.856Z,99.90
2018-08-03T05:27:26.997Z,99.90
2018-08-03T05:29:55.153Z,99.90
2018-08-03T05:32:23.293Z,99.90
2018-08-03T05:34:51.461Z,99.90
2018-08-03T05:37:19.724Z,99.90
2018-08-03T05:42:15.797Z,99.90
2018-08-03T05:44:43.952Z,99.90
2018-08-03T05:47:12.089Z,99.90
2018-08-03T05:49:40.241Z,99.90
2018-08-03T05:52:08.380Z,99.90
2018-08-03T05:54:36.533Z,99.90
2018-08-03T05:59:32.588Z,99.90
2018-08-03T06:02:00.748Z,99.90
2018-08-03T06:06:56.812Z,99.90
2018-08-03T06:11:52.881Z,99.90
2018-08-03T06:14:21.037Z,99.90
2018-08-03T06:16:49.173Z,99.90
2018-08-03T06:19:17.312Z,99.90
2018-08-03T06:21:45.453Z,99.90
2018-08-03T06:24:13.725Z,99.90
2018-08-03T06:29:09.866Z,99.90
2018-08-03T06:34:06.069Z,99.90
2018-08-03T06:36:34.246Z,99.90
2018-08-03T06:39:02.373Z,99.90
2018-08-03T06:41:30.528Z,99.90
2018-08-03T06:46:26.585Z,99.90
2018-08-03T06:48:54.724Z,99.90
2018-08-03T06:51:22.878Z,99.90
2018-08-03T06:53:51.025Z,99.90
2018-08-03T06:56:19.172Z,99.90
2018-08-03T07:01:15.232Z,99.90
2018-08-03T07:03:43.380Z,99.90
2018-08-03T07:08:39.444Z,99.90
2018-08-03T07:11:07.841Z,99.90
2018-08-03T07:13:35.980Z,99.90
2018-08-03T07:18:32.062Z,99.90
2018-08-03T07:21:00.209Z,99.90
2018-08-03T07:25:56.282Z,99.70
2018-08-03T07:28:24.419Z,99.50
2018-08-03T07:33:20.489Z,98.90
2018-08-03T07:35:48.637Z,98.40
2018-08-03T07:43:12.720Z,96.40
2018-08-03T07:45:40.828Z,96.70
2018-08-03T07:50:36.885Z,96.10
2018-08-03T07:53:05.024Z,95.90
2018-08-03T07:55:33.179Z,96.10
2018-08-03T07:58:04.258Z,95.00
2018-08-03T08:00:32.671Z,95.80
2018-08-03T08:03:00.820Z,94.80
2018-08-03T08:07:56.878Z,94.70
2018-08-03T08:10:25.063Z,94.10
2018-08-03T08:12:53.204Z,94.30
2018-08-03T08:17:51.049Z,93.80
2018-08-03T08:20:19.277Z,92.90
2018-08-03T08:22:47.416Z,93.50
2018-08-03T08:25:16.058Z,92.40
2018-08-03T08:27:44.205Z,92.20
2018-08-03T08:32:40.257Z,91.90
2018-08-03T08:35:08.405Z,92.20
2018-08-03T08:37:36.545Z,91.80
2018-08-03T08:40:05.457Z,92.10
2018-08-03T08:42:33.601Z,91.40
2018-08-03T08:45:01.751Z,91.50
2018-08-03T08:47:29.938Z,91.00
2018-08-03T08:49:58.082Z,90.40
2018-08-03T08:54:54.260Z,90.10
2018-08-03T08:57:22.354Z,90.30
2018-08-03T08:59:50.505Z,90.30
2018-08-03T09:02:18.988Z,90.30
2018-08-03T09:04:47.133Z,90.40
2018-08-03T09:09:43.209Z,89.40
2018-08-03T09:12:11.348Z,87.00
2018-08-03T09:14:39.561Z,87.20
2018-08-03T09:17:07.726Z,85.60
2018-08-03T09:19:35.872Z,86.40
2018-08-03T09:22:04.058Z,85.10
2018-08-03T09:24:32.225Z,83.10
2018-08-03T09:27:00.308Z,83.40
2018-08-03T09:29:28.508Z,84.10
2018-08-03T09:31:56.664Z,84.20
2018-08-03T09:34:24.814Z,82.70
2018-08-03T09:36:52.964Z,81.10
2018-08-03T09:39:21.113Z,80.80
2018-08-03T09:41:49.276Z,80.50
2018-08-03T09:44:17.429Z,79.30
2018-08-03T09:46:45.573Z,79.50
2018-08-03T09:49:13.730Z,80.30
2018-08-03T09:51:41.871Z,79.10
2018-08-03T09:54:10.018Z,79.20
2018-08-03T09:59:06.104Z,77.80
2018-08-03T10:01:34.258Z,77.10
2018-08-03T10:04:02.406Z,76.50
2018-08-03T10:08:58.464Z,75.10
2018-08-03T10:11:26.609Z,75.10
2018-08-03T10:13:54.760Z,75.80
2018-08-03T10:16:22.912Z,75.00
2018-08-03T10:18:51.063Z,74.90
2018-08-03T10:21:19.201Z,74.80
2018-08-03T10:23:47.429Z,74.70
2018-08-03T10:26:15.561Z,72.60
2018-08-03T10:28:43.779Z,72.90
2018-08-03T10:31:11.911Z,72.00
2018-08-03T10:33:40.062Z,71.90
2018-08-03T10:36:08.209Z,72.50
2018-08-03T10:38:36.341Z,72.60
2018-08-03T10:41:04.530Z,71.80
2018-08-03T10:43:32.693Z,72.30
2018-08-03T10:48:29.188Z,72.90
2018-08-03T10:50:57.333Z,72.00
2018-08-03T10:53:25.513Z,72.90
2018-08-03T10:55:53.703Z,74.10
2018-08-03T10:58:21.895Z,74.70
2018-08-03T11:00:49.998Z,75.10
2018-08-03T11:03:18.140Z,74.50
2018-08-03T11:05:46.276Z,74.50
2018-08-03T11:08:14.432Z,75.00
2018-08-03T11:10:42.572Z,76.20
2018-08-03T11:13:10.725Z,76.40
2018-08-03T11:15:38.877Z,76.50
2018-08-03T11:18:07.071Z,75.50
2018-08-03T11:20:35.209Z,75.90
2018-08-03T11:23:03.344Z,75.20
2018-08-03T11:25:31.599Z,75.10
2018-08-03T11:27:59.741Z,76.30
2018-08-03T11:32:55.820Z,74.70
2018-08-03T11:35:23.999Z,74.10
2018-08-03T11:37:52.132Z,74.30
2018-08-03T11:42:48.412Z,72.90
2018-08-03T11:45:16.560Z,73.40
2018-08-03T11:47:44.709Z,74.20
2018-08-03T11:50:12.850Z,71.60
2018-08-03T11:52:41.009Z,71.10
2018-08-03T11:55:09.149Z,71.00
2018-08-03T12:00:05.420Z,70.90
2018-08-03T12:02:33.578Z,70.10
2018-08-03T12:07:29.737Z,69.70
2018-08-03T12:09:57.885Z,70.40
2018-08-03T12:12:26.036Z,71.50
2018-08-03T12:14:54.185Z,71.00
2018-08-03T12:17:22.417Z,70.30
2018-08-03T12:22:18.968Z,68.90
2018-08-03T12:27:15.049Z,65.40
2018-08-03T12:29:43.228Z,64.50
2018-08-03T12:32:11.373Z,65.10
2018-08-03T12:37:07.434Z,61.60
2018-08-03T12:39:35.589Z,60.70
2018-08-03T12:47:00.345Z,59.60
2018-08-03T12:49:28.518Z,60.60
2018-08-03T12:51:56.668Z,61.10
2018-08-03T12:54:24.809Z,62.50
2018-08-03T12:56:53.046Z,63.50
2018-08-03T12:59:21.176Z,64.80
2018-08-03T13:01:49.332Z,64.40
2018-08-03T13:04:17.501Z,61.60
2018-08-03T13:06:45.628Z,61.60
2018-08-03T13:09:13.761Z,62.00
2018-08-03T13:11:41.912Z,59.90
2018-08-03T13:14:10.045Z,59.50
2018-08-03T13:16:38.197Z,60.20
2018-08-03T13:19:06.333Z,59.20
2018-08-03T13:21:36.812Z,59.80
2018-08-03T13:26:33.181Z,60.60
2018-08-03T13:29:01.545Z,60.80
2018-08-03T13:33:58.248Z,61.20
2018-08-03T13:36:27.651Z,61.70
2018-08-03T13:41:23.713Z,60.90
2018-08-03T13:43:51.844Z,60.80
2018-08-03T13:46:20.043Z,61.20
2018-08-03T13:48:48.780Z,60.80
2018-08-03T13:53:46.464Z,60.90
2018-08-03T13:58:44.368Z,60.10
2018-08-03T14:01:24.099Z,60.00
2018-08-03T14:03:52.401Z,61.20
2018-08-03T14:06:20.573Z,60.10
2018-08-03T14:08:49.453Z,61.50
2018-08-03T14:11:18.362Z,62.00
2018-08-03T14:13:46.833Z,61.70
2018-08-03T14:16:15.088Z,61.70
2018-08-03T14:21:12.568Z,58.00
2018-08-03T14:26:08.625Z,57.30
2018-08-03T14:28:36.876Z,56.60
2018-08-03T14:31:05.094Z,56.40
2018-08-03T14:33:33.257Z,57.10
2018-08-03T14:36:01.397Z,54.80
2018-08-03T14:38:29.545Z,55.60
2018-08-03T14:40:57.685Z,55.30
2018-08-03T14:43:25.834Z,55.60
2018-08-03T14:48:21.906Z,55.60
2018-08-03T14:50:50.061Z,55.50
2018-08-03T14:53:18.213Z,55.60
2018-08-03T14:55:46.365Z,55.50
2018-08-03T14:58:14.501Z,56.60
2018-08-03T15:00:42.760Z,57.10
2018-08-03T15:03:10.904Z,57.70
2018-08-03T15:05:39.060Z,57.90
2018-08-03T15:08:07.308Z,57.40
2018-08-03T15:10:35.482Z,56.90
2018-08-03T15:13:03.627Z,57.30
2018-08-03T15:17:59.688Z,56.70
2018-08-03T15:20:27.836Z,55.10
2018-08-03T15:25:23.892Z,55.60
2018-08-03T15:27:52.035Z,56.70
2018-08-03T15:30:20.190Z,57.60
2018-08-03T15:32:48.325Z,57.30
2018-08-03T15:35:16.485Z,57.60
2018-08-03T15:40:12.662Z,56.80
2018-08-03T15:42:40.796Z,55.80
2018-08-03T15:47:37.490Z,56.60
2018-08-03T15:50:05.953Z,57.20
2018-08-03T15:52:34.259Z,58.00
2018-08-03T15:55:02.426Z,57.40
2018-08-03T15:57:30.593Z,58.30
2018-08-03T15:59:58.733Z,57.80
2018-08-03T16:02:26.881Z,57.50
2018-08-03T16:04:55.022Z,57.10
2018-08-03T16:07:23.169Z,57.40
2018-08-03T16:12:19.225Z,56.60
2018-08-03T16:14:47.372Z,56.20
2018-08-03T16:17:15.504Z,56.10
2018-08-03T16:19:43.644Z,55.90
2018-08-03T16:22:11.809Z,56.20
2018-08-03T16:24:39.949Z,55.80
2018-08-03T16:27:08.098Z,56.40
2018-08-03T16:29:36.256Z,57.30
2018-08-03T16:32:04.389Z,57.40
2018-08-03T16:34:32.541Z,57.50
2018-08-03T16:37:00.753Z,57.60
2018-08-03T16:41:56.889Z,57.40
2018-08-03T16:44:25.057Z,57.30
2018-08-03T16:48:17.437Z,57.90
2018-08-03T16:50:45.590Z,57.70
2018-08-03T16:53:13.747Z,57.60
2018-08-03T16:55:41.889Z,57.50
2018-08-03T16:58:10.259Z,57.70
2018-08-03T17:00:38.411Z,57.00
2018-08-03T17:05:34.459Z,57.00
2018-08-03T17:08:02.592Z,56.60
2018-08-03T17:10:30.789Z,56.40
2018-08-03T17:12:58.888Z,56.60
2018-08-03T17:15:27.041Z,57.60
2018-08-03T17:20:24.013Z,58.20
2018-08-03T17:22:52.161Z,58.30
2018-08-03T17:25:20.390Z,58.40
2018-08-03T17:27:48.563Z,58.30
2018-08-03T17:30:16.697Z,58.50
2018-08-03T17:35:12.840Z,59.40
2018-08-03T17:40:08.893Z,59.40
2018-08-03T17:45:05.267Z,59.30
2018-08-03T17:47:33.432Z,60.20
2018-08-03T17:50:01.621Z,60.00
2018-08-03T17:52:29.761Z,60.60
2018-08-03T17:57:26.934Z,60.20
2018-08-03T18:02:23.112Z,60.20
2018-08-03T18:04:51.301Z,59.50
2018-08-03T18:07:19.428Z,58.70
2018-08-03T18:12:16.425Z,58.40
2018-08-03T18:14:44.571Z,58.30
2018-08-03T18:19:40.633Z,58.80
2018-08-03T18:22:08.801Z,59.20
2018-08-03T18:24:36.980Z,58.80
2018-08-03T18:27:05.168Z,59.00
2018-08-03T18:29:33.329Z,59.10
2018-08-03T18:32:01.485Z,59.50
2018-08-03T18:36:57.536Z,59.80
2018-08-03T18:39:25.680Z,59.90
2018-08-03T18:41:53.837Z,61.00
2018-08-03T18:44:21.982Z,61.30
2018-08-03T18:46:50.120Z,61.70
2018-08-03T18:51:46.173Z,62.50
2018-08-03T18:56:42.451Z,63.90
2018-08-03T18:59:10.605Z,64.40
2018-08-03T19:01:38.860Z,64.40
2018-08-03T19:06:35.048Z,65.50
2018-08-03T19:09:03.721Z,66.30
2018-08-03T19:11:31.869Z,66.80
2018-08-03T19:16:27.953Z,68.70
2018-08-03T19:18:56.101Z,68.70
2018-08-03T19:21:24.252Z,68.90
2018-08-03T19:23:54.005Z,69.90
2018-08-03T19:26:22.161Z,70.30
2018-08-03T19:31:22.716Z,71.00
2018-08-03T19:33:50.877Z,71.20
2018-08-03T19:36:19.421Z,71.20
2018-08-03T19:38:48.350Z,72.40
2018-08-03T19:41:17.796Z,72.20
2018-08-03T19:43:46.385Z,72.60
2018-08-03T19:46:14.552Z,72.90
2018-08-03T19:48:42.710Z,72.90
2018-08-03T19:51:10.986Z,73.00
2018-08-03T19:53:39.493Z,73.00
2018-08-03T19:56:08.057Z,72.80
2018-08-03T19:58:37.206Z,73.20
2018-08-03T20:01:05.484Z,73.30
2018-08-03T20:03:33.633Z,73.90
2018-08-03T20:06:02.200Z,74.50
2018-08-03T20:08:30.337Z,75.30
2018-08-03T20:13:26.557Z,77.10
2018-08-03T20:15:54.650Z,77.70
2018-08-03T20:18:22.806Z,77.80
2018-08-03T20:20:50.961Z,78.50
2018-08-03T20:23:19.113Z,79.00
2018-08-03T20:25:47.291Z,79.40
2018-08-03T20:28:15.448Z,80.40
2018-08-03T20:30:44.529Z,81.20
2018-08-03T20:33:12.641Z,82.00
2018-08-03T20:35:40.794Z,82.10
2018-08-03T20:38:09.357Z,83.50
2018-08-03T20:40:37.524Z,84.60
2018-08-03T20:43:06.597Z,85.80
2018-08-03T20:45:35.354Z,85.30
2018-08-03T20:48:04.733Z,86.40
2018-08-03T20:50:33.853Z,86.30
2018-08-03T20:53:02.420Z,86.90
2018-08-03T20:55:30.685Z,88.40
2018-08-03T20:57:59.133Z,89.10
2018-08-03T21:00:28.837Z,89.60
2018-08-03T21:02:57.800Z,90.20
2018-08-03T21:05:27.019Z,90.60
2018-08-03T21:07:55.181Z,91.40
2018-08-03T21:10:23.866Z,92.00
2018-08-03T21:12:52.429Z,92.60
2018-08-03T21:15:20.581Z,92.70
2018-08-03T21:20:17.994Z,93.00
2018-08-03T21:22:46.127Z,93.40
2018-08-03T21:25:14.293Z,93.80
2018-08-03T21:27:42.440Z,94.00
2018-08-03T21:30:11.290Z,94.30
2018-08-03T21:35:07.523Z,94.90
2018-08-03T21:40:04.508Z,95.30
2018-08-03T21:42:33.924Z,95.40
2018-08-03T21:45:02.338Z,95.90
2018-08-03T21:47:30.497Z,96.30
2018-08-03T21:50:02.914Z,96.60
2018-08-03T21:52:32.976Z,96.50
2018-08-03T21:55:03.507Z,96.60
2018-08-03T21:57:31.652Z,96.90
2018-08-03T22:02:27.741Z,97.00
2018-08-03T22:04:55.876Z,97.30
2018-08-03T22:07:24.062Z,97.60
2018-08-03T22:12:20.106Z,98.20
2018-08-03T22:14:48.240Z,98.60
2018-08-03T22:17:16.388Z,99.30
2018-08-03T22:19:44.528Z,99.30
2018-08-03T22:22:12.680Z,99.50
2018-08-03T22:27:08.744Z,99.90
2018-08-03T22:29:36.888Z,99.90
2018-08-03T22:32:05.043Z,99.90
2018-08-03T22:34:33.176Z,99.90
2018-08-03T22:37:01.329Z,99.90
2018-08-03T22:39:29.476Z,99.90
2018-08-03T22:41:58.637Z,99.90
2018-08-03T22:44:26.777Z,99.90
2018-08-03T22:46:54.939Z,99.90
2018-08-03T22:51:51.004Z,99.90
2018-08-03T22:54:19.164Z,99.90
2018-08-03T22:56:47.311Z,99.90
2018-08-03T22:59:15.456Z,99.90
2018-08-03T23:01:43.620Z,99.90
2018-08-03T23:04:11.768Z,99.90
2018-08-03T23:06:39.931Z,99.90
2018-08-03T23:11:36.680Z,99.90
2018-08-03T23:14:04.838Z,99.90
2018-08-03T23:16:33.049Z,99.90
2018-08-03T23:19:01.201Z,99.90
2018-08-03T23:21:29.393Z,99.90
2018-08-03T23:23:57.547Z,99.90
2018-08-03T23:26:25.700Z,99.90
2018-08-03T23:28:53.841Z,99.90
2018-08-03T23:31:21.997Z,99.90
2018-08-03T23:33:50.144Z,99.90
2018-08-03T23:36:18.295Z,99.90
2018-08-03T23:38:46.448Z,99.90
2018-08-03T23:41:14.604Z,99.90
2018-08-03T23:43:42.752Z,99.90
2018-08-03T23:46:10.925Z,99.90
2018-08-03T23:48:39.066Z,99.90
2018-08-03T23:51:07.212Z,99.90
2018-08-03T23:53:35.368Z,99.90
2018-08-03T23:56:03.560Z,99.90
2018-08-03T23:58:31.700Z,99.90
